Time;durP1;ratioP1;P1;durP2;ratioP2;P2;SDS_P1;SDS_P2;PMS_P1;PMS_P2;Temp;Humidity;BMP_temperature;BMP_pressure;BME280_temperature;BME280_humidity;BME280_pressure;Samples;Min_cycle;Max_cycle;Signal;HPM_P1;HPM_P2
2022/12/26 00:01:24;;;;;;;5.63;2.50;;;;;;;-144.47;92.07;52917.66;5005581;28;20107;-71
2022/12/26 00:03:49;;;;;;;7.03;2.58;;;;;;;-144.47;92.26;52919.66;5005230;28;20049;-69
2022/12/26 00:06:18;;;;;;;6.97;2.75;;;;;;;-144.47;92.19;52901.78;5006061;28;20108;-72
2022/12/26 00:08:44;;;;;;;7.50;2.40;;;;;;;-144.47;92.20;52915.69;4998202;28;20029;-69
2022/12/26 00:11:11;;;;;;;6.68;2.22;;;;;;;-144.47;92.33;52915.69;5003421;28;20022;-71
2022/12/26 00:13:39;;;;;;;4.55;2.20;;;;;;;-144.47;92.20;52911.69;5007552;28;20598;-70
2022/12/26 00:16:06;;;;;;;5.32;2.35;;;;;;;-144.47;92.81;52919.66;5007658;28;20056;-71
2022/12/26 00:18:32;;;;;;;5.70;2.30;;;;;;;-144.47;93.11;52919.66;5001095;28;20053;-71
2022/12/26 00:20:57;;;;;;;4.85;2.47;;;;;;;-144.47;93.08;52927.59;5005531;28;20478;-72
2022/12/26 00:23:22;;;;;;;5.38;2.42;;;;;;;-144.47;93.28;52935.53;5006988;28;20109;-69
2022/12/26 00:25:48;;;;;;;5.75;2.30;;;;;;;-144.47;93.47;52889.84;5005188;28;20034;-69
2022/12/26 00:28:13;;;;;;;6.88;2.67;;;;;;;-144.47;93.80;52929.59;5003440;28;20060;-72
2022/12/26 00:30:38;;;;;;;5.85;2.80;;;;;;;-144.47;93.94;52927.59;4998855;28;20022;-72
2022/12/26 00:33:04;;;;;;;9.77;2.80;;;;;;;-144.47;94.15;52901.78;4999429;28;20389;-73
2022/12/26 00:35:29;;;;;;;6.43;3.13;;;;;;;-144.47;94.00;52945.47;5010607;28;20014;-69
2022/12/26 00:37:54;;;;;;;4.75;2.60;;;;;;;-144.47;94.20;52935.53;5010382;28;20088;-72
2022/12/26 00:40:20;;;;;;;5.00;2.75;;;;;;;-144.47;94.25;52921.63;5010686;28;20021;-71
2022/12/26 00:42:45;;;;;;;6.50;3.10;;;;;;;-144.47;94.36;52943.47;5003946;28;20073;-70
2022/12/26 00:45:10;;;;;;;5.32;2.60;;;;;;;-144.47;94.13;52927.59;4995785;28;20041;-72
2022/12/26 00:47:36;;;;;;;5.72;2.80;;;;;;;-144.47;94.58;52957.38;5002203;28;20022;-72
2022/12/26 00:50:02;;;;;;;6.60;3.00;;;;;;;-144.47;94.35;52949.44;5006129;28;20192;-70
2022/12/26 00:52:27;;;;;;;8.57;3.55;;;;;;;-144.47;94.25;52947.47;5010850;28;20018;-70
2022/12/26 00:54:53;;;;;;;8.68;3.08;;;;;;;-144.47;94.56;52931.56;5006354;28;20393;-71
2022/12/26 00:57:18;;;;;;;7.53;2.72;;;;;;;-144.47;93.80;52941.50;5010420;28;20056;-69
2022/12/26 00:59:43;;;;;;;6.63;3.30;;;;;;;-144.47;93.73;52907.72;4999475;28;20413;-71
2022/12/26 01:02:36;;;;;;;8.30;3.60;;;;;;;-144.47;94.03;52953.41;5000037;28;20109;-72
2022/12/26 01:04:54;;;;;;;5.53;2.85;;;;;;;-144.47;94.33;52931.56;5004775;28;20033;-70
2022/12/26 01:07:19;;;;;;;9.02;2.90;;;;;;;-144.47;94.02;52935.53;5003321;28;20029;-71
2022/12/26 01:09:45;;;;;;;5.13;2.60;;;;;;;-144.47;93.64;52943.47;5010841;28;20049;-73
2022/12/26 01:12:10;;;;;;;6.18;2.95;;;;;;;-144.47;93.93;52903.75;5010832;28;20491;-70
2022/12/26 01:14:36;;;;;;;5.70;3.15;;;;;;;-144.47;93.63;52959.38;5002971;28;20024;-70
2022/12/26 01:17:01;;;;;;;6.55;2.85;;;;;;;-144.47;93.18;52939.50;5006781;28;20022;-71
2022/12/26 01:19:27;;;;;;;6.90;2.92;;;;;;;-144.47;93.33;52915.69;5010396;28;20037;-71
2022/12/26 01:21:52;;;;;;;7.53;2.92;;;;;;;-144.47;92.90;52905.75;5009166;28;20053;-69
2022/12/26 01:24:17;;;;;;;5.80;3.00;;;;;;;-144.47;92.96;52909.72;5010238;28;20452;-71
2022/12/26 01:26:43;;;;;;;6.22;3.17;;;;;;;-144.47;92.82;52927.59;5009816;28;20045;-68
2022/12/26 01:29:08;;;;;;;6.70;2.83;;;;;;;-144.47;92.97;52943.47;5007079;28;20379;-71
2022/12/26 01:31:34;;;;;;;6.35;3.03;;;;;;;-144.47;91.98;52927.59;5010170;28;20529;-72
2022/12/26 01:33:59;;;;;;;9.07;3.15;;;;;;;-144.47;91.31;52921.63;5006874;28;20025;-68
2022/12/26 01:36:24;;;;;;;7.28;3.20;;;;;;;-144.47;90.82;52941.50;5009809;28;20056;-74
2022/12/26 01:38:50;;;;;;;5.38;2.67;;;;;;;-144.47;90.74;52915.69;5010873;28;20113;-71
2022/12/26 01:41:15;;;;;;;8.60;2.55;;;;;;;-144.47;90.47;52929.59;5010702;28;20336;-71
2022/12/26 01:43:56;;;;;;;5.85;2.92;;;;;;;-144.47;90.65;52947.47;5010548;28;20442;-73
2022/12/26 01:46:43;;;;;;;7.72;3.42;;;;;;;-144.47;90.65;52917.66;5007830;28;20025;-71
2022/12/26 01:49:30;;;;;;;5.95;2.90;;;;;;;-144.47;90.97;52911.69;4998111;28;20056;-72
2022/12/26 01:52:02;;;;;;;10.90;2.70;;;;;;;-144.47;90.97;52907.72;4996380;28;20104;-70
2022/12/26 01:54:32;;;;;;;7.07;2.95;;;;;;;-144.47;90.35;52899.78;4989232;28;20503;-70
2022/12/26 01:56:58;;;;;;;5.93;2.85;;;;;;;-144.47;90.23;52937.53;5008205;28;20435;-70
2022/12/26 01:59:27;;;;;;;6.07;2.45;;;;;;;-144.47;89.15;52911.69;5009736;28;20065;-70
2022/12/26 02:01:54;;;;;;;4.60;2.38;;;;;;;-144.47;88.51;52927.59;5009727;28;20077;-73
2022/12/26 02:07:08;;;;;;;;;;;;;;;-144.47;88.20;52923.63;4999115;28;20029;-71
2022/12/26 02:09:35;;;;;;;4.22;2.25;;;;;;;-144.47;88.11;52917.66;5010203;28;19906;-71
2022/12/26 02:12:22;;;;;;;5.47;2.65;;;;;;;-144.47;88.02;52899.78;5009595;28;20053;-72
2022/12/26 02:14:49;;;;;;;4.85;2.30;;;;;;;-144.47;87.77;52911.69;5006163;28;20014;-71
2022/12/26 02:17:15;;;;;;;5.70;2.60;;;;;;;-144.47;87.49;52891.84;5009229;28;20644;-70
2022/12/26 02:20:22;;;;;;;4.72;2.40;;;;;;;-144.47;87.52;52893.81;5008142;28;20408;-71
2022/12/26 02:23:06;;;;;;;6.75;2.50;;;;;;;-144.47;87.39;52889.84;5008743;28;20076;-73
2022/12/26 02:25:49;;;;;;;5.53;2.45;;;;;;;-144.47;87.37;52901.78;5008194;28;20472;-71
2022/12/26 02:28:14;;;;;;;4.90;2.78;;;;;;;-144.47;86.97;52895.81;5009152;28;20100;-71
2022/12/26 02:31:02;;;;;;;5.43;2.33;;;;;;;-144.47;86.61;52905.75;5007706;28;20033;-73
2022/12/26 02:34:01;;;;;;;6.57;2.40;;;;;;;-144.47;86.30;52895.81;5001183;28;20041;-70
2022/12/26 02:37:14;;;;;;;4.05;2.00;;;;;;;-144.47;86.57;52921.63;4998450;28;20038;-73
2022/12/26 02:40:07;;;;;;;10.32;2.70;;;;;;;-144.47;86.60;52903.75;5003807;28;20045;-72
2022/12/26 02:42:53;;;;;;;6.55;2.63;;;;;;;-144.47;86.94;52901.78;4996278;28;20029;-69
2022/12/26 02:48:32;;;;;;;6.32;2.67;;;;;;;-144.47;87.45;52935.53;5007904;28;20061;-68
2022/12/26 03:13:35;;;;;;;5.88;2.40;;;;;;;-144.47;87.13;52921.63;5008697;28;20105;-73
2022/12/26 03:18:58;;;;;;;5.55;2.90;;;;;;;-144.47;87.10;52905.75;5007816;28;20391;-74
2022/12/26 03:21:33;;;;;;;6.57;2.63;;;;;;;-144.47;86.99;52895.81;5006394;28;20029;-71
2022/12/26 03:23:59;;;;;;;4.47;2.78;;;;;;;-144.47;86.99;52923.63;5008410;28;20022;-73
2022/12/26 03:26:38;;;;;;;5.97;2.35;;;;;;;-144.47;87.12;52913.69;5006842;28;20025;-69
2022/12/26 03:31:50;;;;;;;8.00;2.92;;;;;;;-144.47;87.40;52915.69;5008972;28;20109;-72
2022/12/26 03:34:18;;;;;;;6.38;2.35;;;;;;;-144.47;87.79;52891.84;4999029;28;20109;-74
2022/12/26 03:37:11;;;;;;;7.80;2.70;;;;;;;-144.47;88.09;52919.66;5007555;28;20041;-73
2022/12/26 04:44:13;;;;;;;7.25;2.63;;;;;;;-144.47;88.70;52903.75;5029967;28;20052;-68
2022/12/26 04:46:44;;;;;;;6.15;2.63;;;;;;;-144.47;88.52;52915.69;5028452;28;20114;-73
2022/12/26 04:51:57;;;;;;;5.55;2.83;;;;;;;-144.47;88.09;52907.72;5029180;28;20717;-69
2022/12/26 04:54:23;;;;;;;6.65;2.50;;;;;;;-144.47;88.06;52903.75;5007749;28;20018;-70
2022/12/26 04:56:49;;;;;;;10.77;2.65;;;;;;;-144.47;88.18;52927.59;5020110;28;20033;-72
2022/12/26 04:59:14;;;;;;;5.63;2.90;;;;;;;-144.47;88.33;52901.78;5029265;28;20038;-72
2022/12/26 05:10:03;;;;;;;5.82;2.70;;;;;;;-144.47;88.79;52915.69;5017898;28;20040;-69
2022/12/26 05:12:29;;;;;;;9.68;2.78;;;;;;;-144.47;88.71;52903.75;5010692;28;20033;-72
2022/12/26 05:14:54;;;;;;;5.80;2.55;;;;;;;-144.47;88.58;52911.69;5028712;28;20052;-69
2022/12/26 05:28:41;;;;;;;10.60;2.40;;;;;;;-144.47;88.71;52905.75;5017025;28;20047;-71
2022/12/26 05:31:09;;;;;;;5.88;2.50;;;;;;;-144.47;88.55;52881.91;5014943;28;20503;-69
2022/12/26 05:36:20;;;;;;;7.18;2.30;;;;;;;-144.47;88.87;52901.78;5032344;28;20075;-73
2022/12/26 05:38:47;;;;;;;6.00;2.47;;;;;;;-144.47;89.11;52931.56;5031669;28;20038;-72
2022/12/26 05:41:13;;;;;;;4.55;2.13;;;;;;;-144.47;89.40;52939.50;5021428;28;20034;-72
2022/12/26 05:43:38;;;;;;;11.55;2.45;;;;;;;-144.47;89.78;52923.63;5026261;28;20502;-72
2022/12/26 05:46:04;;;;;;;6.20;2.60;;;;;;;-144.47;90.40;52919.66;5012424;28;20025;-70
2022/12/26 05:48:29;;;;;;;8.88;2.55;;;;;;;-144.47;90.62;52931.56;5031928;28;20026;-68
2022/12/26 05:50:59;;;;;;;3.38;2.00;;;;;;;-144.47;90.77;52925.59;5031422;28;20026;-72
2022/12/26 05:53:25;;;;;;;4.53;1.88;;;;;;;-144.47;91.22;52911.69;5013816;28;20026;-71
2022/12/26 05:55:50;;;;;;;3.67;1.90;;;;;;;-144.47;91.44;52893.81;5010322;28;20104;-72
2022/12/26 05:58:16;;;;;;;4.65;2.42;;;;;;;-144.47;91.43;52937.53;5032328;28;20056;-72
2022/12/26 06:00:41;;;;;;;5.38;2.28;;;;;;;-144.47;92.10;52955.41;5033933;28;20051;-72
2022/12/26 06:03:07;;;;;;;4.25;2.15;;;;;;;-144.47;91.89;52939.50;5033155;28;20030;-72
2022/12/26 06:05:32;;;;;;;6.40;2.50;;;;;;;-144.47;91.99;52919.66;5032398;28;20108;-73
2022/12/26 06:07:57;;;;;;;9.93;2.72;;;;;;;-144.47;92.05;52927.59;5013431;28;20021;-71
2022/12/26 06:10:25;;;;;;;5.95;2.42;;;;;;;-144.47;91.96;52911.69;5031294;28;20071;-72
2022/12/26 06:12:51;;;;;;;4.30;1.92;;;;;;;-144.47;91.76;52915.69;5031366;28;20041;-71
2022/12/26 06:15:17;;;;;;;4.97;2.50;;;;;;;-144.47;91.68;52905.75;5030551;28;20048;-67
2022/12/26 06:17:43;;;;;;;4.55;2.20;;;;;;;-144.47;92.60;52917.66;4993831;28;20486;-70
2022/12/26 06:20:09;;;;;;;5.60;2.40;;;;;;;-144.47;92.28;52911.69;5025520;28;20021;-70
2022/12/26 06:22:34;;;;;;;4.70;2.38;;;;;;;-144.47;92.14;52905.75;5030707;28;20522;-73
2022/12/26 06:25:00;;;;;;;4.03;2.05;;;;;;;-144.47;91.92;52923.63;5031494;28;20014;-69
2022/12/26 06:27:25;;;;;;;6.75;2.63;;;;;;;-144.47;92.04;52933.56;5012895;28;20021;-70
2022/12/26 06:29:50;;;;;;;5.53;2.97;;;;;;;-144.47;92.46;52941.50;5031317;28;20112;-72
2022/12/26 06:32:16;;;;;;;6.13;2.75;;;;;;;-144.47;92.45;52943.47;5030923;28;20053;-71
2022/12/26 06:34:41;;;;;;;7.00;2.67;;;;;;;-144.47;92.73;52933.56;5012789;28;20018;-72
2022/12/26 06:37:06;;;;;;;6.70;3.00;;;;;;;-144.47;93.02;52911.69;5030472;28;20028;-70
2022/12/26 06:39:32;;;;;;;6.30;2.42;;;;;;;-144.47;93.23;52953.41;5031376;28;20069;-73
2022/12/26 06:41:57;;;;;;;6.75;3.55;;;;;;;-144.47;93.13;52923.63;5031068;28;20473;-74
2022/12/26 06:44:23;;;;;;;5.85;2.60;;;;;;;-144.47;93.38;52935.53;5013681;28;20028;-71
2022/12/26 06:46:48;;;;;;;5.28;2.33;;;;;;;-144.47;93.16;52959.38;5013027;28;20104;-70
2022/12/26 06:49:13;;;;;;;4.65;2.63;;;;;;;-144.47;92.59;52919.66;5030752;28;20375;-69
2022/12/26 06:51:39;;;;;;;8.52;2.88;;;;;;;-144.47;91.80;52923.63;5031986;28;20017;-71
2022/12/26 06:54:05;;;;;;;6.32;2.15;;;;;;;-144.47;91.25;52921.63;5013735;28;20044;-69
2022/12/26 06:56:32;;;;;;;5.43;2.42;;;;;;;-144.47;90.88;52931.56;5030500;28;20048;-70
2022/12/26 06:58:59;;;;;;;5.35;2.72;;;;;;;-144.47;90.28;52935.53;5026810;28;20022;-70
2022/12/26 07:01:26;;;;;;;4.75;2.63;;;;;;;-144.47;89.75;52891.84;5029099;28;20029;-70
2022/12/26 07:03:53;;;;;;;6.80;2.63;;;;;;;-144.47;89.60;52931.56;5013612;28;20473;-73
2022/12/26 07:06:23;;;;;;;6.32;2.63;;;;;;;-144.47;89.47;52947.47;5033099;28;20025;-73
2022/12/26 07:08:49;;;;;;;7.57;2.42;;;;;;;-144.47;89.46;52919.66;5036612;28;20032;-72
2022/12/26 07:11:16;;;;;;;6.50;2.97;;;;;;;-144.47;89.60;52955.41;5030328;28;20021;-72
2022/12/26 07:13:42;;;;;;;4.32;2.28;;;;;;;-144.47;89.55;52913.69;5037284;28;20021;-73
2022/12/26 07:16:09;;;;;;;6.22;2.58;;;;;;;-144.47;89.80;52941.50;5036093;28;20441;-72
2022/12/26 07:18:34;;;;;;;6.03;3.00;;;;;;;-144.47;89.53;52939.50;5034825;28;20087;-72
2022/12/26 07:21:07;;;;;;;7.22;2.25;;;;;;;-144.47;89.20;52923.63;5037763;28;20029;-70
2022/12/26 07:23:32;;;;;;;7.93;3.20;;;;;;;-144.47;89.11;52907.72;5035216;28;20350;-70
2022/12/26 07:25:57;;;;;;;6.32;2.65;;;;;;;-144.47;89.06;52919.66;5036214;28;20021;-71
2022/12/26 07:28:23;;;;;;;9.20;2.33;;;;;;;-144.47;88.68;52891.84;5034980;28;20025;-71
2022/12/26 07:30:49;;;;;;;7.05;2.65;;;;;;;-144.47;88.49;52903.75;5035478;28;20384;-71
2022/12/26 07:33:15;;;;;;;8.90;2.42;;;;;;;-144.47;88.17;52913.69;5036223;28;20108;-71
2022/12/26 07:35:41;;;;;;;5.82;2.47;;;;;;;-144.47;87.72;52881.91;5037498;28;20040;-71
2022/12/26 07:38:07;;;;;;;5.18;2.20;;;;;;;-144.47;87.47;52891.84;5037803;28;20367;-69
2022/12/26 07:40:32;;;;;;;8.48;2.47;;;;;;;-144.47;87.42;52935.53;5037552;28;20038;-72
2022/12/26 07:42:58;;;;;;;6.80;2.90;;;;;;;-144.47;87.39;52923.63;5039067;28;20025;-70
2022/12/26 07:45:23;;;;;;;6.20;3.35;;;;;;;-144.47;87.63;52933.56;5037647;28;20311;-72
2022/12/26 07:47:52;;;;;;;6.18;2.88;;;;;;;-144.47;87.74;52909.72;5020618;28;20056;-69
2022/12/26 07:50:18;;;;;;;6.13;2.40;;;;;;;-144.47;87.41;52899.78;5037333;28;20047;-71
2022/12/26 07:52:43;;;;;;;6.28;2.38;;;;;;;-144.47;87.09;52905.75;5036425;28;20056;-73
2022/12/26 07:55:09;;;;;;;7.72;3.00;;;;;;;-144.47;86.57;52909.72;5033591;28;20017;-72
2022/12/26 07:57:34;;;;;;;5.15;2.40;;;;;;;-144.47;86.28;52919.66;5028510;28;20037;-71
2022/12/26 07:59:59;;;;;;;7.75;2.15;;;;;;;-144.47;85.90;52901.78;5021097;28;20029;-70
2022/12/26 08:02:25;;;;;;;6.80;2.75;;;;;;;-144.47;85.70;52913.69;5029813;28;20082;-71
2022/12/26 08:04:50;;;;;;;8.02;2.30;;;;;;;-144.47;85.38;52883.91;5029925;28;20635;-71
2022/12/26 08:07:15;;;;;;;8.95;3.13;;;;;;;-144.47;85.16;52903.75;5029385;28;20668;-70
2022/12/26 08:09:43;;;;;;;8.30;2.65;;;;;;;-144.47;85.15;52933.56;5030523;28;20075;-71
2022/12/26 08:12:09;;;;;;;6.30;1.98;;;;;;;-144.47;84.78;52891.84;5031062;28;20033;-70
2022/12/26 08:14:36;;;;;;;5.68;2.10;;;;;;;-144.47;84.85;52909.72;5031233;28;20024;-70
2022/12/26 08:17:02;;;;;;;6.47;2.42;;;;;;;-144.47;85.05;52899.78;5012119;28;20056;-69
2022/12/26 08:19:27;;;;;;;6.00;2.30;;;;;;;-144.47;84.86;52919.66;5030061;28;20483;-69
2022/12/26 08:21:53;;;;;;;4.43;2.20;;;;;;;-144.47;84.93;52875.94;5013113;28;20064;-72
2022/12/26 08:24:18;;;;;;;7.25;2.38;;;;;;;-144.47;84.99;52901.78;5031730;28;20026;-68
2022/12/26 08:26:44;;;;;;;5.35;2.22;;;;;;;-144.47;84.86;52927.59;5009117;28;20041;-70
2022/12/26 08:29:09;;;;;;;5.65;2.28;;;;;;;-144.47;84.85;52917.66;5022418;28;20021;-71
2022/12/26 08:31:35;;;;;;;7.32;2.10;;;;;;;-144.47;84.75;52921.63;5021709;28;20026;-70
2022/12/26 08:34:00;;;;;;;8.02;2.33;;;;;;;-144.47;84.62;52903.75;5009362;28;20494;-73
2022/12/26 08:36:26;;;;;;;5.85;2.38;;;;;;;-144.47;84.59;52893.81;5022998;28;20029;-70
2022/12/26 08:38:51;;;;;;;5.68;2.10;;;;;;;-144.47;84.57;52871.97;5025583;28;20029;-72
2022/12/26 08:41:17;;;;;;;6.03;2.00;;;;;;;-144.47;84.55;52913.69;5001589;28;20013;-70
2022/12/26 08:43:43;;;;;;;4.85;2.25;;;;;;;-144.47;84.49;52893.81;5030109;28;20375;-72
2022/12/26 08:46:10;;;;;;;4.88;2.28;;;;;;;-144.47;84.31;52903.75;5011835;28;20125;-69
2022/12/26 08:48:38;;;;;;;14.85;2.95;;;;;;;-144.47;84.47;52939.50;5028742;28;20026;-70
2022/12/26 08:51:23;;;;;;;5.03;2.10;;;;;;;-144.47;84.48;52913.69;5007648;28;20375;-73
2022/12/26 08:53:50;;;;;;;5.25;2.30;;;;;;;-144.47;84.54;52907.72;5014589;28;20025;-72
2022/12/26 08:56:19;;;;;;;4.72;2.00;;;;;;;-144.47;84.47;52885.88;5026153;28;20509;-71
2022/12/26 08:58:45;;;;;;;;;;;;;;;-144.47;84.55;52905.75;5033586;28;20104;-71
2022/12/26 09:01:16;;;;;;;10.48;3.95;;;;;;;-144.47;84.56;52921.63;5012121;28;20271;-69
2022/12/26 09:03:43;;;;;;;8.00;2.00;;;;;;;-144.47;84.51;52891.84;5028168;28;20025;-71
2022/12/26 09:06:10;;;;;;;10.88;4.53;;;;;;;-144.47;84.51;52911.69;5032879;28;20490;-71
2022/12/26 09:08:36;;;;;;;5.00;2.42;;;;;;;-144.47;84.72;52907.72;5032350;28;20029;-70
2022/12/26 09:11:08;;;;;;;4.93;2.53;;;;;;;-144.47;84.73;52909.72;5025656;28;20017;-70
2022/12/26 09:13:34;;;;;;;6.55;2.80;;;;;;;-144.47;84.88;52887.88;5026699;28;20021;-71
2022/12/26 09:16:09;;;;;;;6.93;2.88;;;;;;;-144.47;84.96;52909.72;5025117;28;20029;-68
2022/12/26 09:18:35;;;;;;;4.95;2.33;;;;;;;-144.47;85.13;52873.97;5029213;28;20028;-69
2022/12/26 09:21:03;;;;;;;9.50;2.72;;;;;;;-144.47;84.96;52901.78;5033386;28;20371;-71
2022/12/26 09:23:28;;;;;;;8.32;2.65;;;;;;;-144.47;84.81;52887.88;5031463;28;20029;-71
2022/12/26 09:25:54;;;;;;;5.78;2.70;;;;;;;-144.47;84.73;52899.78;5032077;28;20017;-68
2022/12/26 09:28:20;;;;;;;12.68;2.80;;;;;;;-144.47;84.78;52919.66;5031390;28;20081;-71
2022/12/26 09:30:45;;;;;;;6.90;3.08;;;;;;;-144.47;84.98;52901.78;5032640;28;20066;-70
2022/12/26 09:33:10;;;;;;;6.75;2.70;;;;;;;-144.47;85.03;52899.78;5011117;28;20440;-71
2022/12/26 09:35:40;;;;;;;6.82;2.40;;;;;;;-144.47;85.14;52870.00;5031384;28;20053;-70
2022/12/26 09:38:05;;;;;;;8.77;2.50;;;;;;;-144.47;84.87;52923.63;5027904;28;20402;-70
2022/12/26 09:40:46;;;;;;;6.18;2.20;;;;;;;-144.47;85.05;52887.88;5027150;28;20029;-70
2022/12/26 09:43:30;;;;;;;6.03;2.65;;;;;;;-144.47;85.16;52883.91;5023400;28;20017;-71
2022/12/26 09:46:09;;;;;;;8.40;2.67;;;;;;;-144.47;85.43;52911.69;5026419;28;20056;-68
2022/12/26 09:48:45;;;;;;;4.88;2.55;;;;;;;-144.47;85.51;52913.69;5026770;28;20041;-70
2022/12/26 09:51:11;;;;;;;7.90;2.20;;;;;;;-144.47;85.16;52895.81;5034280;23;20073;-69
2022/12/26 09:53:46;;;;;;;9.70;2.17;;;;;;;-144.47;84.93;52897.81;4990886;28;20060;-68
2022/12/26 09:56:17;;;;;;;7.43;2.50;;;;;;;-144.47;85.55;52873.97;5008753;28;20030;-69
2022/12/26 09:58:52;;;;;;;4.80;2.60;;;;;;;-144.47;85.90;52905.75;5010080;28;20483;-70
2022/12/26 10:01:19;;;;;;;8.25;2.47;;;;;;;-144.47;85.80;52895.81;5010617;28;20042;-72
2022/12/26 10:03:57;;;;;;;6.25;2.25;;;;;;;-144.47;86.16;52907.72;4983150;28;20088;-69
2022/12/26 10:06:23;;;;;;;11.10;3.20;;;;;;;-144.47;86.24;52917.66;4959296;28;20073;-70
2022/12/26 10:09:04;;;;;;;6.07;2.67;;;;;;;-144.47;86.05;52891.84;5003344;28;20040;-69
2022/12/26 10:12:12;;;;;;;5.82;2.80;;;;;;;-144.47;86.45;52913.69;5009175;28;20050;-68
2022/12/26 10:14:51;;;;;;;9.82;3.63;;;;;;;-144.47;86.05;52875.94;4986697;28;20026;-69
2022/12/26 10:17:38;;;;;;;7.50;3.47;;;;;;;-144.47;86.12;52866.03;5000820;28;20499;-70
2022/12/26 10:20:09;;;;;;;6.00;2.40;;;;;;;-144.47;85.80;52897.81;4988277;28;20030;-71
2022/12/26 10:22:58;;;;;;;4.55;2.22;;;;;;;-144.47;85.63;52875.94;5003792;28;20038;-69
2022/12/26 10:25:48;;;;;;;4.15;2.22;;;;;;;-144.47;85.35;52871.97;4983134;28;20030;-69
2022/12/26 10:28:33;;;;;;;8.15;2.35;;;;;;;-144.47;85.00;52866.03;4986488;28;20036;-67
2022/12/26 10:31:03;;;;;;;4.90;2.40;;;;;;;-144.47;84.80;52895.81;4992753;28;20076;-70
2022/12/26 10:33:42;;;;;;;6.10;2.35;;;;;;;-144.47;83.73;52875.94;4991350;28;20039;-73
2022/12/26 10:36:20;;;;;;;5.50;2.47;;;;;;;-144.47;83.20;52903.75;4975196;28;20060;-73
2022/12/26 10:38:50;;;;;;;5.15;2.00;;;;;;;-144.47;82.95;52905.75;5008976;28;20113;-69
2022/12/26 10:41:39;;;;;;;8.95;2.58;;;;;;;-144.47;82.29;52891.84;4992618;28;20025;-70
2022/12/26 10:44:05;;;;;;;9.38;2.67;;;;;;;-144.47;82.57;52877.94;5007855;28;20128;-68
2022/12/26 10:46:54;;;;;;;6.07;2.17;;;;;;;-144.47;82.78;52899.78;4973700;28;20685;-70
2022/12/26 10:49:23;;;;;;;7.72;2.60;;;;;;;-144.47;82.94;52891.84;5001100;28;20353;-68
2022/12/26 10:51:50;;;;;;;6.68;2.33;;;;;;;-144.47;83.73;52879.94;5007043;28;20034;-70
2022/12/26 10:54:18;;;;;;;5.03;2.13;;;;;;;-144.47;88.16;52875.94;5007454;28;20018;-68
2022/12/26 10:56:46;;;;;;;5.82;2.35;;;;;;;-144.47;92.14;52909.72;5000485;28;20372;-74
2022/12/26 10:59:16;;;;;;;6.90;2.88;;;;;;;-144.47;95.97;52905.75;5001225;28;20028;-70
2022/12/26 11:01:46;;;;;;;7.15;2.63;;;;;;;-144.47;99.13;52919.66;5008414;28;20018;-69
2022/12/26 11:04:17;;;;;;;8.95;3.28;;;;;;;-144.47;100.00;52899.78;4995524;28;20491;-69
2022/12/26 11:06:43;;;;;;;8.23;3.33;;;;;;;-144.47;100.00;52893.81;5002319;28;20055;-71
2022/12/26 11:09:47;;;;;;;15.57;3.15;;;;;;;-144.47;100.00;52911.69;5008933;28;20022;-73
2022/12/26 11:12:21;;;;;;;7.25;2.50;;;;;;;-144.47;100.00;52911.69;5008740;28;20018;-69
2022/12/26 11:14:47;;;;;;;7.03;2.00;;;;;;;-144.47;100.00;52931.56;5005485;28;20075;-70
2022/12/26 11:17:23;;;;;;;5.22;2.25;;;;;;;-144.47;100.00;52887.88;5007068;28;20046;-71
2022/12/26 11:19:48;;;;;;;5.78;1.90;;;;;;;-144.47;100.00;52893.81;5007246;28;20050;-69
2022/12/26 11:22:27;;;;;;;2.67;1.38;;;;;;;-144.47;100.00;52929.59;5004522;28;20156;-70
2022/12/26 11:25:11;;;;;;;5.68;2.10;;;;;;;-144.47;100.00;52929.59;5004823;28;20100;-73
2022/12/26 11:27:42;;;;;;;3.33;1.42;;;;;;;-144.47;100.00;52897.81;5006425;28;20246;-71
2022/12/26 11:30:14;;;;;;;9.30;1.77;;;;;;;-144.47;100.00;52931.56;5008874;28;20451;-73
2022/12/26 11:32:49;;;;;;;4.47;1.40;;;;;;;-144.47;100.00;52931.56;5003822;28;20041;-73
2022/12/26 11:35:20;;;;;;;3.45;1.40;;;;;;;-144.47;100.00;52923.63;5006613;28;20013;-70
2022/12/26 11:37:49;;;;;;;1.98;1.20;;;;;;;-144.47;100.00;52921.63;5008335;28;20022;-70
2022/12/26 11:40:28;;;;;;;5.35;1.45;;;;;;;-144.47;100.00;52929.59;5006191;28;20120;-69
2022/12/26 11:42:56;;;;;;;2.58;1.15;;;;;;;-144.47;100.00;52945.47;5006669;28;20029;-72
2022/12/26 11:45:26;;;;;;;2.33;1.20;;;;;;;-144.47;100.00;52919.66;5009087;28;20071;-73
2022/12/26 11:47:55;;;;;;;5.53;1.15;;;;;;;-144.47;100.00;52935.53;5005075;28;20034;-73
2022/12/26 11:50:23;;;;;;;5.60;1.08;;;;;;;-144.47;100.00;52941.50;5004887;28;20105;-73
2022/12/26 11:53:05;;;;;;;2.33;0.90;;;;;;;-144.47;100.00;52891.84;5006946;28;20042;-71
2022/12/26 11:55:36;;;;;;;1.75;0.70;;;;;;;-144.47;99.77;52933.56;5001963;28;20013;-73
2022/12/26 11:58:08;;;;;;;1.33;0.80;;;;;;;-144.47;99.90;52931.56;5006022;28;20018;-72
2022/12/26 12:00:36;;;;;;;2.70;0.82;;;;;;;-144.47;99.55;52915.69;5009039;28;20463;-72
2022/12/26 12:03:08;;;;;;;1.20;0.80;;;;;;;-144.47;98.34;52915.69;5009036;28;20022;-70
2022/12/26 12:06:01;;;;;;;3.25;0.82;;;;;;;-144.47;96.88;52913.69;5006720;28;20048;-73
2022/12/26 12:08:32;;;;;;;1.02;0.70;;;;;;;-144.47;96.86;52907.72;5006030;28;20099;-68
2022/12/26 12:11:30;;;;;;;1.85;0.77;;;;;;;-144.47;97.04;52945.47;4999132;28;20532;-69
2022/12/26 12:14:07;;;;;;;;;;;;;;;-144.47;96.92;52927.59;5008824;28;20025;-72
2022/12/26 12:16:38;;;;;;;0.40;0.40;;;;;;;-144.47;96.88;52915.69;5006550;28;20051;-72
2022/12/26 12:19:27;;;;;;;0.57;0.55;;;;;;;-144.47;96.25;52899.78;5008290;28;20111;-70
2022/12/26 12:22:32;;;;;;;0.88;0.68;;;;;;;-144.47;96.24;52895.81;4998895;28;20076;-73
2022/12/26 12:25:28;;;;;;;2.05;0.80;;;;;;;-144.47;96.22;52951.44;4998672;28;20068;-74
2022/12/26 12:28:32;;;;;;;1.10;0.57;;;;;;;-144.47;95.27;52901.78;5005967;28;20125;-72
2022/12/26 12:31:10;;;;;;;1.40;0.77;;;;;;;-144.47;95.33;52933.56;5002951;28;20025;-71
2022/12/26 12:33:43;;;;;;;0.85;0.65;;;;;;;-144.47;94.19;52911.69;5013761;28;20040;-68
2022/12/26 12:36:15;;;;;;;0.63;0.45;;;;;;;-144.47;93.48;52921.63;5014490;28;20018;-72
2022/12/26 12:39:02;;;;;;;3.50;0.90;;;;;;;-144.47;93.91;52905.75;5013665;28;20093;-73
2022/12/26 12:41:33;;;;;;;0.90;0.60;;;;;;;-144.47;93.55;52907.72;5008251;28;20014;-69
2022/12/26 12:44:07;;;;;;;2.92;0.82;;;;;;;-144.47;93.51;52917.66;5014169;28;20113;-71
2022/12/26 12:46:48;;;;;;;1.80;0.88;;;;;;;-144.47;93.43;52923.63;5013795;28;20033;-70
2022/12/26 12:49:37;;;;;;;1.75;0.80;;;;;;;-144.47;93.52;52903.75;5013507;28;20076;-72
2022/12/26 12:52:26;;;;;;;2.05;0.70;;;;;;;-144.47;93.56;52945.47;5013809;28;20038;-70
2022/12/26 12:55:01;;;;;;;;;;;;;;;-144.47;93.42;52903.75;5004630;28;20021;-73
2022/12/26 12:57:41;;;;;;;3.55;1.25;;;;;;;-144.47;93.58;52959.38;5013096;28;20024;-72
2022/12/26 13:00:32;;;;;;;2.10;1.00;;;;;;;-144.47;93.55;52919.66;5014347;28;20066;-73
2022/12/26 13:03:00;;;;;;;2.72;0.80;;;;;;;-144.47;93.54;52935.53;5004360;28;20018;-69
2022/12/26 13:05:38;;;;;;;1.50;0.70;;;;;;;-144.47;93.29;52923.63;5013749;28;20018;-70
2022/12/26 13:08:24;;;;;;;6.07;0.98;;;;;;;-144.47;93.00;52919.66;5015503;28;20343;-69
2022/12/26 13:10:56;;;;;;;1.63;0.98;;;;;;;-144.47;92.81;52923.63;5004513;28;20061;-72
2022/12/26 13:13:31;;;;;;;1.98;0.88;;;;;;;-144.47;92.70;52923.63;5014884;28;20088;-69
2022/12/26 13:16:06;;;;;;;3.78;0.80;;;;;;;-144.47;92.29;52905.75;5019856;28;20018;-71
2022/12/26 13:18:37;;;;;;;2.00;0.82;;;;;;;-144.47;91.91;52925.59;5014143;28;20044;-72
2022/12/26 13:21:09;;;;;;;4.18;0.98;;;;;;;-144.47;91.70;52957.38;5014927;28;20109;-70
2022/12/26 13:26:41;;;;;;;1.85;0.95;;;;;;;-144.47;91.34;52907.72;5014455;28;20040;-72
2022/12/26 13:29:24;;;;;;;1.90;0.95;;;;;;;-144.47;91.31;52895.81;5013691;28;20041;-73
2022/12/26 13:31:49;;;;;;;1.58;0.80;;;;;;;-144.47;91.10;52887.88;5011361;28;20018;-73
2022/12/26 13:34:19;;;;;;;1.63;0.80;;;;;;;-144.47;90.28;52917.66;5013211;28;20020;-73
2022/12/26 13:36:51;;;;;;;1.80;0.93;;;;;;;-144.47;89.46;52919.66;5013094;28;20081;-72
2022/12/26 13:39:22;;;;;;;1.25;0.70;;;;;;;-144.47;89.64;52897.81;5013867;28;20045;-73
2022/12/26 13:44:33;;;;;;;1.25;0.70;;;;;;;-144.47;89.34;52929.59;5010951;28;20112;-72